Latest Weather Observations for Hillarys Point Boat Harbour

IDW60801

Issued at 4:35 pm WST Saturday 25 October 2014 (issued every 30 minutes, with the page automatically refreshed every 10 minutes)

About weather observations | Map of weather stations | Latest weather observations for WA | Other Formats
Station Details ID: 009265 Name: HILLARYS BOAT HARBOUR NTC AWS Lat: -31.83 Lon: 115.74 Height: 0.0 m
Data from the previous 72 hours. | See also: Recent months for locations in Western Australia
Date/Time
WST
Temp
°C
App
Temp
°C
Dew
Point
Rel
Hum
%
Delta-T
°C
Wind Press
QNH
hPa
Press
MSL
hPa
Rain
since 9 am
mm
Dir
 
Spd
km/h
Gust
km/h
Spd
kts
Gust
kts
25/04:30pm 19.0 - - - - WNW 17 26 9 14 1017.7 1017.7 -
25/04:00pm 19.6 - - - - W 15 24 8 13 1017.7 1017.7 -
25/03:30pm 19.6 - - - - W 15 26 8 14 1017.8 1017.8 -
25/03:00pm 19.7 - - - - W 15 24 8 13 1017.7 1017.7 -
25/02:30pm 19.6 - - - - W 15 22 8 12 1017.7 1017.7 -
25/02:00pm 19.8 - - - - W 15 22 8 12 1017.6 1017.6 -
25/01:30pm 19.8 - - - - W 15 20 8 11 1017.7 1017.7 -
25/01:00pm 19.6 - - - - W 13 20 7 11 1017.8 1017.8 -
25/12:30pm 19.6 - - - - WSW 19 26 10 14 1017.8 1017.8 -
25/12:00pm 19.6 - - - - WSW 17 24 9 13 1017.9 1017.9 -
25/11:30am 19.7 - - - - W 15 22 8 12 1018.0 1018.0 -
25/11:00am 19.6 - - - - W 15 24 8 13 1018.0 1018.0 -
25/10:30am 19.4 - - - - WSW 13 22 7 12 1017.9 1017.9 -
25/10:00am 19.4 - - - - WSW 17 26 9 14 1017.9 1017.9 -
25/09:30am 19.1 - - - - WSW 17 24 9 13 1017.9 1017.9 -
25/09:00am 18.9 - - - - WSW 17 20 9 11 1017.7 1017.7 -
25/08:30am 18.9 - - - - WSW 19 28 10 15 1017.4 1017.4 -
25/08:00am 18.8 - - - - WSW 20 28 11 15 1016.8 1016.8 -
25/07:30am 18.9 - - - - WSW 17 24 9 13 1016.8 1016.8 -
25/07:00am 18.7 - - - - WSW 17 22 9 12 1016.2 1016.2 -
25/06:30am 18.8 - - - - WSW 17 22 9 12 1016.0 1016.0 -
25/06:00am 18.8 - - - - WSW 17 24 9 13 1015.9 1015.9 -
25/05:30am 18.7 - - - - SW 19 26 10 14 1015.4 1015.4 -
25/05:00am 18.7 - - - - WSW 20 28 11 15 1015.2 1015.2 -
25/04:30am 18.8 - - - - WSW 22 30 12 16 1015.2 1015.2 -
25/04:00am 19.0 - - - - WSW 19 26 10 14 1015.0 1015.0 -
25/03:30am 19.2 - - - - WSW 9 15 5 8 1014.7 1014.7 -
25/03:00am 19.1 - - - - WSW 11 15 6 8 1014.7 1014.7 -
25/02:30am 19.0 - - - - WSW 11 15 6 8 1014.5 1014.5 -
25/02:00am 19.1 - - - - WSW 13 17 7 9 1014.6 1014.6 -
25/01:30am 19.1 - - - - WSW 13 17 7 9 1014.6 1014.6 -
25/01:00am 19.1 - - - - SW 13 17 7 9 1014.7 1014.7 -
25/12:30am 19.1 - - - - SW 9 17 5 9 1014.8 1014.8 -
25/12:00am 19.0 - - - - SW 9 17 5 9 1015.0 1015.0 -
 
Date/Time
WST
Temp
°C
App
Temp
°C
Dew
Point
Rel
Hum
%
Delta-T
°C
Wind Press
QNH
hPa
Press
MSL
hPa
Rain
since 9 am
mm
Dir
 
Spd
km/h
Gust
km/h
Spd
kts
Gust
kts
24/11:30pm 19.0 - - - - SSW 7 15 4 8 1015.1 1015.1 -
24/11:00pm 18.9 - - - - SSW 9 15 5 8 1015.3 1015.3 -
24/10:30pm 18.9 - - - - SSW 9 17 5 9 1015.4 1015.4 -
24/10:00pm 19.0 - - - - SSW 9 15 5 8 1015.4 1015.4 -
24/09:30pm 19.1 - - - - SSW 7 17 4 9 1015.6 1015.6 -
24/09:00pm 19.0 - - - - SSW 7 20 4 11 1015.5 1015.5 -
24/08:30pm 19.1 - - - - SSW 9 20 5 11 1015.5 1015.5 -
24/08:00pm 19.2 - - - - SSW 9 19 5 10 1015.3 1015.3 -
24/07:30pm 19.3 - - - - SSW 7 19 4 10 1015.1 1015.1 -
24/07:00pm 19.5 - - - - SSW 9 17 5 9 1015.0 1015.0 -
24/06:30pm 19.6 - - - - SSW 7 19 4 10 1015.0 1015.0 -
24/06:00pm 19.9 - - - - SSW 11 24 6 13 1014.9 1014.9 -
24/05:30pm 20.3 - - - - SSW 11 22 6 12 1014.8 1014.8 -
24/05:00pm 20.4 - - - - SSW 11 19 6 10 1014.6 1014.6 -
24/04:30pm 20.7 - - - - SSW 11 20 6 11 1014.4 1014.4 -
24/04:00pm 20.7 - - - - SSW 11 20 6 11 1014.3 1014.3 -
24/03:30pm 20.8 - - - - SSW 11 19 6 10 1014.1 1014.1 -
24/03:00pm 20.7 - - - - SSW 11 22 6 12 1014.1 1014.1 -
24/02:30pm 20.7 - - - - SW 13 20 7 11 1014.4 1014.4 -
24/02:00pm 20.8 - - - - SW 13 22 7 12 1014.6 1014.6 -
24/01:30pm 20.3 - - - - SW 19 26 10 14 1014.9 1014.9 -
24/01:00pm 20.3 - - - - SW 15 22 8 12 1015.2 1015.2 -
24/12:30pm 20.0 - - - - SW 17 24 9 13 1015.4 1015.4 -
24/12:00pm 19.9 - - - - SW 17 24 9 13 1015.7 1015.7 -
24/11:30am 20.1 - - - - SW 13 20 7 11 1015.9 1015.9 -
24/11:00am 19.3 - - - - SW 15 22 8 12 1016.4 1016.4 -
24/10:30am 19.3 - - - - SW 11 17 6 9 1016.7 1016.7 -
24/10:00am 18.9 - - - - SW 11 15 6 8 1017.0 1017.0 -
24/09:30am 18.8 - - - - SW 7 11 4 6 1017.3 1017.3 -
24/09:00am 19.0 - - - - E 6 13 3 7 1017.5 1017.5 -
24/08:30am 18.7 - - - - E 6 15 3 8 1017.3 1017.3 -
24/08:00am 17.7 - - - - E 11 20 6 11 1017.2 1017.2 -
24/07:30am 17.1 - - - - ENE 13 26 7 14 1017.3 1017.3 -
24/07:00am 16.1 - - - - ENE 13 20 7 11 1017.1 1017.1 -
24/06:30am 15.5 - - - - ENE 9 17 5 9 1017.1 1017.1 -
24/06:00am 15.2 - - - - E 7 13 4 7 1017.2 1017.2 -
24/05:30am 15.3 - - - - E 11 19 6 10 1016.8 1016.8 -
24/05:00am 15.5 - - - - E 11 19 6 10 1016.6 1016.6 -
24/04:30am 15.5 - - - - E 6 11 3 6 1016.8 1016.8 -
24/04:00am 15.4 - - - - E 4 7 2 4 1016.9 1016.9 -
24/03:30am 15.6 - - - - E 4 6 2 3 1017.0 1017.0 -
24/03:00am 15.8 - - - - E 2 6 1 3 1016.9 1016.9 -
24/02:30am 16.3 - - - - ESE 2 6 1 3 1017.0 1017.0 -
24/02:00am 16.5 - - - - SE 2 7 1 4 1016.8 1016.8 -
24/01:30am 16.7 - - - - SE 4 9 2 5 1017.0 1017.0 -
24/01:00am 17.0 - - - - SSE 4 7 2 4 1017.0 1017.0 -
24/12:30am 17.1 - - - - SSE 6 11 3 6 1017.0 1017.0 -
24/12:00am 17.3 - - - - SE 2 7 1 4 1017.2 1017.2 -
 
Date/Time
WST
Temp
°C
App
Temp
°C
Dew
Point
Rel
Hum
%
Delta-T
°C
Wind Press
QNH
hPa
Press
MSL
hPa
Rain
since 9 am
mm
Dir
 
Spd
km/h
Gust
km/h
Spd
kts
Gust
kts
23/11:30pm 18.0 - - - - SSE 7 13 4 7 1017.2 1017.2 -
23/11:00pm 18.4 - - - - S 6 13 3 7 1017.3 1017.3 -
23/10:30pm 18.5 - - - - SSW 6 17 3 9 1017.4 1017.4 -
23/10:00pm 18.6 - - - - S 7 15 4 8 1017.7 1017.7 -
23/09:30pm 18.6 - - - - SSW 6 15 3 8 1017.8 1017.8 -
23/09:00pm 18.7 - - - - SSW 9 19 5 10 1017.8 1017.8 -
23/08:30pm 18.7 - - - - SSW 6 17 3 9 1017.7 1017.7 -
23/08:00pm 18.7 - - - - SSW 7 19 4 10 1017.6 1017.6 -
23/07:30pm 18.6 - - - - SSW 7 19 4 10 1017.3 1017.3 -
23/07:00pm 18.6 - - - - SSW 9 20 5 11 1017.1 1017.1 -
23/06:30pm 18.8 - - - - SSW 11 22 6 12 1017.0 1017.0 -
23/06:00pm 19.0 - - - - SSW 9 22 5 12 1016.7 1016.7 -
23/05:30pm 19.2 - - - - SSW 11 22 6 12 1016.4 1016.4 -
23/05:00pm 19.4 - - - - SSW 11 20 6 11 1016.3 1016.3 -
23/04:30pm 19.2 - - - - SSW 13 22 7 12 1016.1 1016.1 -
23/04:00pm 19.4 - - - - SSW 11 20 6 11 1016.0 1016.0 -
23/03:30pm 19.5 - - - - SSW 11 20 6 11 1015.9 1015.9 -
23/03:00pm 19.8 - - - - SW 15 22 8 12 1015.9 1015.9 -
23/02:30pm 19.6 - - - - SW 17 24 9 13 1016.0 1016.0 -
23/02:00pm 19.9 - - - - SW 15 24 8 13 1016.0 1016.0 -
23/01:30pm 19.5 - - - - WSW 19 26 10 14 1016.0 1016.0 -
23/01:00pm 19.5 - - - - SW 19 24 10 13 1016.0 1016.0 -
23/12:30pm 19.6 - - - - WSW 17 24 9 13 1016.0 1016.0 -
23/12:00pm 19.4 - - - - WSW 17 24 9 13 1016.0 1016.0 -
23/11:30am 19.6 - - - - WSW 13 19 7 10 1016.0 1016.0 -
23/11:00am 19.6 - - - - WSW 15 24 8 13 1016.1 1016.1 -
23/10:30am 19.4 - - - - W 15 24 8 13 1016.1 1016.1 -
23/10:00am 19.4 - - - - W 15 24 8 13 1016.0 1016.0 -
23/09:30am 19.3 - - - - W 15 22 8 12 1015.8 1015.8 -
23/09:00am 19.3 - - - - W 15 22 8 12 1015.5 1015.5 -
23/08:30am 19.2 - - - - WSW 15 24 8 13 1015.2 1015.2 -
23/08:00am 19.0 - - - - WSW 17 26 9 14 1015.0 1015.0 -
23/07:30am 19.1 - - - - WSW 17 24 9 13 1014.7 1014.7 -
23/07:00am 19.0 - - - - W 17 28 9 15 1014.4 1014.4 -
23/06:30am 18.9 - - - - W 17 26 9 14 1014.1 1014.1 -
23/06:00am 18.8 - - - - W 17 26 9 14 1013.7 1013.7 -
23/05:30am 18.8 - - - - W 17 26 9 14 1013.3 1013.3 -
23/05:00am 18.8 - - - - W 15 22 8 12 1013.0 1013.0 -
23/04:30am 18.8 - - - - W 15 24 8 13 1012.7 1012.7 -
23/04:00am 18.6 - - - - W 17 26 9 14 1012.9 1012.9 -
23/03:30am 18.5 - - - - W 19 30 10 16 1013.2 1013.2 -
23/03:00am 18.9 - - - - WNW 17 26 9 14 1013.4 1013.4 -
23/02:30am 18.9 - - - - WNW 19 30 10 16 1013.5 1013.5 -
23/02:00am 17.1 - - - - N 7 13 4 7 1013.5 1013.5 -
23/01:30am 16.4 - - - - N 9 15 5 8 1013.5 1013.5 -
23/01:00am 16.0 - - - - N 9 15 5 8 1013.5 1013.5 -
23/12:30am 16.1 - - - - NNE 6 9 3 5 1013.7 1013.7 -
23/12:00am 16.3 - - - - N 9 13 5 7 1014.3 1014.3 -
 
Date/Time
WST
Temp
°C
App
Temp
°C
Dew
Point
Rel
Hum
%
Delta-T
°C
Wind Press
QNH
hPa
Press
MSL
hPa
Rain
since 9 am
mm
Dir
 
Spd
km/h
Gust
km/h
Spd
kts
Gust
kts
22/11:30pm 16.4 - - - - N 7 13 4 7 1014.5 1014.5 -
22/11:00pm 16.6 - - - - NNE 6 7 3 4 1014.4 1014.4 -
22/10:30pm 17.3 - - - - N 6 11 3 6 1014.2 1014.2 -
22/10:00pm 17.7 - - - - NW 7 11 4 6 1014.0 1014.0 -
22/09:30pm 17.4 - - - - W 13 20 7 11 1013.9 1013.9 -
22/09:00pm 18.7 - - - - NNW 19 35 10 19 1014.8 1014.8 -
22/08:30pm 19.6 - - - - NW 15 28 8 15 1014.3 1014.3 -
22/08:00pm 19.3 - - - - WNW 15 28 8 15 1013.9 1013.9 -
22/07:30pm 19.4 - - - - NW 13 22 7 12 1013.6 1013.6 -
22/07:00pm 19.4 - - - - WNW 15 26 8 14 1013.5 1013.5 -
22/06:30pm 19.5 - - - - WNW 19 28 10 15 1013.3 1013.3 -
22/06:00pm 19.7 - - - - WNW 20 35 11 19 1013.1 1013.1 -
22/05:30pm 19.8 - - - - WNW 19 32 10 17 1013.0 1013.0 -
22/05:00pm 20.1 - - - - WNW 19 33 10 18 1012.8 1012.8 -

Other Formats:

Comma delimited format used in spreadsheet applications
http://www.bom.gov.au/fwo/IDW60801/IDW60801.95605.axf

JavaScript Object Notation format (JSON) in row-major order
http://www.bom.gov.au/fwo/IDW60801/IDW60801.95605.json